sensor_id;sensor_type;location;lat;lon;timestamp;pressure;altitude;pressure_sealevel;temperature;humidity
76868;BME280;66168;45.478;11.060;2023-03-14T00:00:58;100123.16;;;13.36;61.87
76868;BME280;66168;45.478;11.060;2023-03-14T00:03:25;100124.20;;;13.23;63.49
76868;BME280;66168;45.478;11.060;2023-03-14T00:05:51;100122.44;;;13.11;64.15
76868;BME280;66168;45.478;11.060;2023-03-14T00:08:18;100114.26;;;13.01;64.32
76868;BME280;66168;45.478;11.060;2023-03-14T00:10:47;100119.55;;;12.89;64.74
76868;BME280;66168;45.478;11.060;2023-03-14T00:13:14;100125.39;;;12.80;64.92
76868;BME280;66168;45.478;11.060;2023-03-14T00:15:41;100114.63;;;12.78;64.68
76868;BME280;66168;45.478;11.060;2023-03-14T00:18:08;100096.08;;;12.83;63.98
76868;BME280;66168;45.478;11.060;2023-03-14T00:20:34;100091.41;;;12.89;63.82
76868;BME280;66168;45.478;11.060;2023-03-14T00:23:01;100095.08;;;12.92;63.76
76868;BME280;66168;45.478;11.060;2023-03-14T00:25:28;100110.75;;;12.83;64.46
76868;BME280;66168;45.478;11.060;2023-03-14T00:27:55;100104.13;;;12.78;64.58
76868;BME280;66168;45.478;11.060;2023-03-14T00:30:22;100096.36;;;12.79;64.49
76868;BME280;66168;45.478;11.060;2023-03-14T00:32:49;100086.06;;;12.84;63.63
76868;BME280;66168;45.478;11.060;2023-03-14T00:35:16;100088.24;;;12.91;63.55
76868;BME280;66168;45.478;11.060;2023-03-14T00:37:42;100089.66;;;12.93;62.83
76868;BME280;66168;45.478;11.060;2023-03-14T00:40:09;100084.44;;;12.96;63.39
76868;BME280;66168;45.478;11.060;2023-03-14T00:42:36;100073.64;;;13.00;62.10
76868;BME280;66168;45.478;11.060;2023-03-14T00:45:03;100062.83;;;13.01;61.96
76868;BME280;66168;45.478;11.060;2023-03-14T00:47:32;100044.41;;;13.02;62.84
76868;BME280;66168;45.478;11.060;2023-03-14T00:49:59;100039.17;;;13.04;62.65
76868;BME280;66168;45.478;11.060;2023-03-14T00:52:26;100031.10;;;13.05;63.28
76868;BME280;66168;45.478;11.060;2023-03-14T00:54:52;100020.02;;;13.07;63.45
76868;BME280;66168;45.478;11.060;2023-03-14T00:57:19;100013.24;;;13.10;63.33
76868;BME280;66168;45.478;11.060;2023-03-14T00:59:46;100003.12;;;13.13;63.33
76868;BME280;66168;45.478;11.060;2023-03-14T01:02:12;99990.20;;;13.16;62.50
76868;BME280;66168;45.478;11.060;2023-03-14T01:04:39;99982.69;;;13.18;62.83
76868;BME280;66168;45.478;11.060;2023-03-14T01:07:06;99987.85;;;13.20;63.01
76868;BME280;66168;45.478;11.060;2023-03-14T01:09:32;99984.98;;;13.25;62.73
76868;BME280;66168;45.478;11.060;2023-03-14T01:11:59;99967.99;;;13.28;61.76
76868;BME280;66168;45.478;11.060;2023-03-14T01:14:26;99967.67;;;13.29;61.89
76868;BME280;66168;45.478;11.060;2023-03-14T01:16:52;99966.48;;;13.27;61.83
76868;BME280;66168;45.478;11.060;2023-03-14T01:19:19;99970.23;;;13.23;62.29
76868;BME280;66168;45.478;11.060;2023-03-14T01:21:46;99968.63;;;13.23;61.82
76868;BME280;66168;45.478;11.060;2023-03-14T01:24:12;99954.11;;;13.26;62.08
76868;BME280;66168;45.478;11.060;2023-03-14T01:26:39;99951.20;;;13.31;62.16
76868;BME280;66168;45.478;11.060;2023-03-14T01:29:07;99953.89;;;13.34;61.36
76868;BME280;66168;45.478;11.060;2023-03-14T01:31:35;99947.07;;;13.35;62.21
76868;BME280;66168;45.478;11.060;2023-03-14T01:34:02;99930.83;;;13.37;61.72
76868;BME280;66168;45.478;11.060;2023-03-14T01:36:29;99921.24;;;13.41;61.13
76868;BME280;66168;45.478;11.060;2023-03-14T01:38:58;99926.20;;;13.43;61.24
76868;BME280;66168;45.478;11.060;2023-03-14T01:41:25;99924.15;;;13.43;61.34
76868;BME280;66168;45.478;11.060;2023-03-14T01:43:59;99912.02;;;13.46;61.58
76868;BME280;66168;45.478;11.060;2023-03-14T01:46:39;99908.39;;;13.48;61.72
76868;BME280;66168;45.478;11.060;2023-03-14T01:49:37;99902.11;;;13.48;61.29
76868;BME280;66168;45.478;11.060;2023-03-14T01:52:11;99895.27;;;13.51;61.26
76868;BME280;66168;45.478;11.060;2023-03-14T01:54:49;99899.86;;;13.55;60.87
76868;BME280;66168;45.478;11.060;2023-03-14T01:57:22;99885.54;;;13.58;60.69
76868;BME280;66168;45.478;11.060;2023-03-14T02:00:14;99881.20;;;13.61;60.87
76868;BME280;66168;45.478;11.060;2023-03-14T02:02:47;99872.92;;;13.64;60.59
76868;BME280;66168;45.478;11.060;2023-03-14T02:05:22;99865.95;;;13.68;60.53
76868;BME280;66168;45.478;11.060;2023-03-14T02:07:59;99862.61;;;13.70;60.38
76868;BME280;66168;45.478;11.060;2023-03-14T02:10:41;99851.98;;;13.72;60.31
76868;BME280;66168;45.478;11.060;2023-03-14T02:13:10;99848.34;;;13.73;60.15
76868;BME280;66168;45.478;11.060;2023-03-14T02:15:48;99847.63;;;13.76;59.83
76868;BME280;66168;45.478;11.060;2023-03-14T02:18:34;99825.54;;;13.76;59.63
76868;BME280;66168;45.478;11.060;2023-03-14T02:24:15;99835.61;;;13.75;59.51
76868;BME280;66168;45.478;11.060;2023-03-14T02:27:11;99841.19;;;13.73;59.42
76868;BME280;66168;45.478;11.060;2023-03-14T02:29:58;99834.59;;;13.76;59.40
76868;BME280;66168;45.478;11.060;2023-03-14T02:32:30;99832.10;;;13.77;59.35
76868;BME280;66168;45.478;11.060;2023-03-14T02:35:02;99815.08;;;13.79;59.18
76868;BME280;66168;45.478;11.060;2023-03-14T02:37:39;99807.70;;;13.81;59.15
76868;BME280;66168;45.478;11.060;2023-03-14T02:40:08;99815.88;;;13.81;59.10
76868;BME280;66168;45.478;11.060;2023-03-14T02:42:36;99800.79;;;13.83;59.08
76868;BME280;66168;45.478;11.060;2023-03-14T02:47:44;99811.91;;;13.84;58.82
76868;BME280;66168;45.478;11.060;2023-03-14T02:50:17;99811.95;;;13.85;58.80
76868;BME280;66168;45.478;11.060;2023-03-14T02:52:45;99811.56;;;13.88;58.82
76868;BME280;66168;45.478;11.060;2023-03-14T02:55:12;99793.09;;;13.87;58.65
76868;BME280;66168;45.478;11.060;2023-03-14T02:57:41;99794.94;;;13.89;58.64
76868;BME280;66168;45.478;11.060;2023-03-14T03:00:08;99808.85;;;13.91;58.50
76868;BME280;66168;45.478;11.060;2023-03-14T03:02:36;99805.69;;;13.93;58.57
76868;BME280;66168;45.478;11.060;2023-03-14T03:05:03;99791.67;;;13.94;58.45
76868;BME280;66168;45.478;11.060;2023-03-14T03:07:30;99802.04;;;13.94;58.31
76868;BME280;66168;45.478;11.060;2023-03-14T03:09:57;99806.36;;;13.95;58.32
76868;BME280;66168;45.478;11.060;2023-03-14T03:12:25;99778.75;;;13.96;58.24
76868;BME280;66168;45.478;11.060;2023-03-14T03:14:51;99789.52;;;13.97;58.10
76868;BME280;66168;45.478;11.060;2023-03-14T03:17:18;99793.65;;;13.94;58.21
76868;BME280;66168;45.478;11.060;2023-03-14T03:19:45;99775.02;;;13.95;58.12
76868;BME280;66168;45.478;11.060;2023-03-14T03:22:12;99775.34;;;13.92;58.06
76868;BME280;66168;45.478;11.060;2023-03-14T03:24:40;99755.29;;;13.90;58.00
76868;BME280;66168;45.478;11.060;2023-03-14T03:27:06;99738.67;;;13.90;57.93
76868;BME280;66168;45.478;11.060;2023-03-14T03:29:34;99745.60;;;13.89;57.89
76868;BME280;66168;45.478;11.060;2023-03-14T03:32:01;99748.18;;;13.88;57.66
76868;BME280;66168;45.478;11.060;2023-03-14T03:34:28;99738.95;;;13.86;57.22
76868;BME280;66168;45.478;11.060;2023-03-14T03:36:57;99735.38;;;13.81;57.27
76868;BME280;66168;45.478;11.060;2023-03-14T03:39:25;99718.81;;;13.76;57.29
76868;BME280;66168;45.478;11.060;2023-03-14T03:41:52;99694.61;;;13.74;57.50
76868;BME280;66168;45.478;11.060;2023-03-14T03:44:19;99690.87;;;13.76;57.36
76868;BME280;66168;45.478;11.060;2023-03-14T03:46:45;99686.55;;;13.74;57.34
76868;BME280;66168;45.478;11.060;2023-03-14T03:49:12;99695.44;;;13.73;57.27
76868;BME280;66168;45.478;11.060;2023-03-14T03:51:40;99696.14;;;13.73;57.09
76868;BME280;66168;45.478;11.060;2023-03-14T03:54:07;99674.87;;;13.71;57.05
76868;BME280;66168;45.478;11.060;2023-03-14T03:56:34;99690.14;;;13.69;57.08
76868;BME280;66168;45.478;11.060;2023-03-14T03:59:01;99687.02;;;13.69;57.04
76868;BME280;66168;45.478;11.060;2023-03-14T04:01:27;99682.05;;;13.70;57.23
76868;BME280;66168;45.478;11.060;2023-03-14T04:03:56;99688.57;;;13.70;57.01
76868;BME280;66168;45.478;11.060;2023-03-14T04:06:23;99679.54;;;13.69;56.88
76868;BME280;66168;45.478;11.060;2023-03-14T04:08:54;99678.36;;;13.67;57.01
76868;BME280;66168;45.478;11.060;2023-03-14T04:11:49;99656.77;;;13.64;57.04
76868;BME280;66168;45.478;11.060;2023-03-14T04:14:19;99666.86;;;13.58;57.20
76868;BME280;66168;45.478;11.060;2023-03-14T04:16:46;99669.65;;;13.57;57.00
76868;BME280;66168;45.478;11.060;2023-03-14T04:19:15;99648.13;;;13.57;57.08
76868;BME280;66168;45.478;11.060;2023-03-14T04:21:42;99644.78;;;13.58;57.05
76868;BME280;66168;45.478;11.060;2023-03-14T04:24:12;99647.80;;;13.56;57.10
76868;BME280;66168;45.478;11.060;2023-03-14T04:26:41;99649.17;;;13.55;57.08
76868;BME280;66168;45.478;11.060;2023-03-14T04:29:09;99634.76;;;13.53;57.08
76868;BME280;66168;45.478;11.060;2023-03-14T04:31:39;99609.34;;;13.51;57.07
76868;BME280;66168;45.478;11.060;2023-03-14T04:34:06;99593.59;;;13.48;57.26
76868;BME280;66168;45.478;11.060;2023-03-14T04:36:40;99603.63;;;13.47;57.23
76868;BME280;66168;45.478;11.060;2023-03-14T04:39:12;99609.66;;;13.46;57.25
76868;BME280;66168;45.478;11.060;2023-03-14T04:41:47;99612.77;;;13.44;57.26
76868;BME280;66168;45.478;11.060;2023-03-14T04:44:14;99609.64;;;13.45;57.45
76868;BME280;66168;45.478;11.060;2023-03-14T04:46:41;99605.39;;;13.47;57.32
76868;BME280;66168;45.478;11.060;2023-03-14T04:49:09;99604.84;;;13.48;57.24
76868;BME280;66168;45.478;11.060;2023-03-14T04:51:37;99590.68;;;13.47;57.21
76868;BME280;66168;45.478;11.060;2023-03-14T04:54:04;99576.99;;;13.48;57.25
76868;BME280;66168;45.478;11.060;2023-03-14T04:56:31;99577.70;;;13.47;57.39
76868;BME280;66168;45.478;11.060;2023-03-14T04:58:59;99586.38;;;13.47;57.35
76868;BME280;66168;45.478;11.060;2023-03-14T05:01:27;99575.73;;;13.47;57.49
76868;BME280;66168;45.478;11.060;2023-03-14T05:04:14;99567.55;;;13.48;57.44
76868;BME280;66168;45.478;11.060;2023-03-14T05:06:46;99560.23;;;13.49;57.45
76868;BME280;66168;45.478;11.060;2023-03-14T05:09:32;99555.27;;;13.52;57.43
76868;BME280;66168;45.478;11.060;2023-03-14T05:12:21;99558.27;;;13.51;57.66
76868;BME280;66168;45.478;11.060;2023-03-14T05:15:17;99558.70;;;13.49;57.73
76868;BME280;66168;45.478;11.060;2023-03-14T05:17:58;99553.73;;;13.49;57.73
76868;BME280;66168;45.478;11.060;2023-03-14T05:20:42;99540.23;;;13.49;57.80
76868;BME280;66168;45.478;11.060;2023-03-14T05:23:21;99508.64;;;13.52;57.70
76868;BME280;66168;45.478;11.060;2023-03-14T05:25:59;99507.66;;;13.52;57.78
76868;BME280;66168;45.478;11.060;2023-03-14T05:28:38;99528.73;;;13.50;58.05
76868;BME280;66168;45.478;11.060;2023-03-14T05:31:31;99525.56;;;13.46;58.06
76868;BME280;66168;45.478;11.060;2023-03-14T05:34:16;99505.83;;;13.44;58.25
76868;BME280;66168;45.478;11.060;2023-03-14T05:37:03;99501.95;;;13.41;58.47
76868;BME280;66168;45.478;11.060;2023-03-14T05:40:01;99488.95;;;13.36;58.68
76868;BME280;66168;45.478;11.060;2023-03-14T05:42:56;99481.94;;;13.37;58.92
76868;BME280;66168;45.478;11.060;2023-03-14T05:45:42;99478.33;;;13.38;58.70
76868;BME280;66168;45.478;11.060;2023-03-14T05:48:27;99485.89;;;13.36;59.55
76868;BME280;66168;45.478;11.060;2023-03-14T05:51:08;99510.16;;;13.39;59.24
76868;BME280;66168;45.478;11.060;2023-03-14T05:53:55;99546.36;;;13.38;59.86
76868;BME280;66168;45.478;11.060;2023-03-14T05:56:36;99574.58;;;13.39;60.08
76868;BME280;66168;45.478;11.060;2023-03-14T05:59:12;99586.71;;;13.40;60.25
76868;BME280;66168;45.478;11.060;2023-03-14T06:01:58;99609.73;;;13.41;62.20
76868;BME280;66168;45.478;11.060;2023-03-14T06:04:26;99616.92;;;13.40;60.98
76868;BME280;66168;45.478;11.060;2023-03-14T06:06:55;99620.34;;;13.39;63.25
76868;BME280;66168;45.478;11.060;2023-03-14T06:09:22;99610.61;;;13.38;64.71
76868;BME280;66168;45.478;11.060;2023-03-14T06:11:51;99618.83;;;13.38;65.68
76868;BME280;66168;45.478;11.060;2023-03-14T06:14:18;99625.42;;;13.35;65.71
76868;BME280;66168;45.478;11.060;2023-03-14T06:16:46;99620.42;;;13.34;67.54
76868;BME280;66168;45.478;11.060;2023-03-14T06:19:16;99613.45;;;13.32;67.86
76868;BME280;66168;45.478;11.060;2023-03-14T06:21:43;99621.12;;;13.30;67.78
76868;BME280;66168;45.478;11.060;2023-03-14T06:24:09;99618.40;;;13.25;68.51
76868;BME280;66168;45.478;11.060;2023-03-14T06:26:43;99613.38;;;13.22;69.59
76868;BME280;66168;45.478;11.060;2023-03-14T06:29:10;99592.16;;;13.19;69.42
76868;BME280;66168;45.478;11.060;2023-03-14T06:31:37;99593.30;;;13.16;69.37
76868;BME280;66168;45.478;11.060;2023-03-14T06:34:05;99601.20;;;13.06;69.93
76868;BME280;66168;45.478;11.060;2023-03-14T06:36:32;99600.59;;;12.96;68.96
76868;BME280;66168;45.478;11.060;2023-03-14T06:38:59;99593.56;;;12.92;69.59
76868;BME280;66168;45.478;11.060;2023-03-14T06:41:26;99575.21;;;12.87;68.77
76868;BME280;66168;45.478;11.060;2023-03-14T06:43:53;99571.59;;;12.78;69.18
76868;BME280;66168;45.478;11.060;2023-03-14T06:46:22;99574.27;;;12.75;70.22
76868;BME280;66168;45.478;11.060;2023-03-14T06:48:49;99573.41;;;12.76;69.15
76868;BME280;66168;45.478;11.060;2023-03-14T06:51:15;99572.87;;;12.81;69.02
76868;BME280;66168;45.478;11.060;2023-03-14T06:53:42;99573.42;;;12.86;68.88
76868;BME280;66168;45.478;11.060;2023-03-14T06:56:09;99581.46;;;12.87;69.27
76868;BME280;66168;45.478;11.060;2023-03-14T06:58:36;99587.24;;;12.86;68.91
76868;BME280;66168;45.478;11.060;2023-03-14T07:01:04;99583.52;;;12.86;69.58
76868;BME280;66168;45.478;11.060;2023-03-14T07:03:35;99581.59;;;12.86;69.42
76868;BME280;66168;45.478;11.060;2023-03-14T07:06:03;99581.18;;;12.87;69.22
76868;BME280;66168;45.478;11.060;2023-03-14T07:08:32;99576.25;;;12.86;69.21
76868;BME280;66168;45.478;11.060;2023-03-14T07:10:59;99570.59;;;12.86;68.85
76868;BME280;66168;45.478;11.060;2023-03-14T07:13:27;99567.59;;;12.87;69.18
76868;BME280;66168;45.478;11.060;2023-03-14T07:15:58;99561.73;;;12.88;70.63
76868;BME280;66168;45.478;11.060;2023-03-14T07:18:25;99560.08;;;12.91;70.68
76868;BME280;66168;45.478;11.060;2023-03-14T07:20:52;99565.95;;;12.94;70.73
76868;BME280;66168;45.478;11.060;2023-03-14T07:23:18;99560.33;;;12.95;70.67
76868;BME280;66168;45.478;11.060;2023-03-14T07:25:47;99560.43;;;12.94;69.86
76868;BME280;66168;45.478;11.060;2023-03-14T07:28:14;99555.21;;;12.89;70.61
76868;BME280;66168;45.478;11.060;2023-03-14T07:30:42;99551.22;;;12.89;71.37
76868;BME280;66168;45.478;11.060;2023-03-14T07:33:14;99535.15;;;12.91;70.45
76868;BME280;66168;45.478;11.060;2023-03-14T07:35:40;99518.77;;;12.93;70.13
76868;BME280;66168;45.478;11.060;2023-03-14T07:38:08;99525.87;;;12.93;69.81
76868;BME280;66168;45.478;11.060;2023-03-14T07:40:38;99538.77;;;12.91;70.26
76868;BME280;66168;45.478;11.060;2023-03-14T07:43:06;99542.26;;;12.93;70.42
76868;BME280;66168;45.478;11.060;2023-03-14T07:45:46;99542.06;;;12.96;70.55
76868;BME280;66168;45.478;11.060;2023-03-14T07:48:16;99557.16;;;12.99;71.48
76868;BME280;66168;45.478;11.060;2023-03-14T07:50:43;99548.21;;;13.02;71.82
76868;BME280;66168;45.478;11.060;2023-03-14T07:53:10;99542.23;;;13.04;72.14
76868;BME280;66168;45.478;11.060;2023-03-14T07:55:37;99553.64;;;13.06;72.26
76868;BME280;66168;45.478;11.060;2023-03-14T07:58:03;99549.36;;;13.07;72.10
76868;BME280;66168;45.478;11.060;2023-03-14T08:00:30;99554.86;;;13.07;72.06
76868;BME280;66168;45.478;11.060;2023-03-14T08:02:57;99554.64;;;13.08;72.72
76868;BME280;66168;45.478;11.060;2023-03-14T08:05:24;99548.21;;;13.08;72.70
76868;BME280;66168;45.478;11.060;2023-03-14T08:07:50;99541.67;;;13.06;72.93
76868;BME280;66168;45.478;11.060;2023-03-14T08:10:17;99541.12;;;13.08;72.22
76868;BME280;66168;45.478;11.060;2023-03-14T08:12:51;99536.23;;;13.09;72.88
76868;BME280;66168;45.478;11.060;2023-03-14T08:15:19;99531.16;;;13.10;73.32
76868;BME280;66168;45.478;11.060;2023-03-14T08:17:46;99521.48;;;13.11;73.79
76868;BME280;66168;45.478;11.060;2023-03-14T08:20:18;99524.67;;;13.10;74.02
76868;BME280;66168;45.478;11.060;2023-03-14T08:22:45;99528.71;;;13.07;74.59
76868;BME280;66168;45.478;11.060;2023-03-14T08:25:12;99522.89;;;13.06;73.42
76868;BME280;66168;45.478;11.060;2023-03-14T08:27:39;99517.42;;;13.05;73.54
76868;BME280;66168;45.478;11.060;2023-03-14T08:30:09;99525.21;;;13.08;73.96
76868;BME280;66168;45.478;11.060;2023-03-14T08:32:37;99535.14;;;13.12;74.05
76868;BME280;66168;45.478;11.060;2023-03-14T08:35:05;99543.02;;;13.17;73.28
76868;BME280;66168;45.478;11.060;2023-03-14T08:37:33;99542.41;;;13.21;73.63
76868;BME280;66168;45.478;11.060;2023-03-14T08:39:59;99536.54;;;13.25;74.15
76868;BME280;66168;45.478;11.060;2023-03-14T08:42:26;99530.95;;;13.29;73.80
76868;BME280;66168;45.478;11.060;2023-03-14T08:44:53;99527.01;;;13.33;73.90
76868;BME280;66168;45.478;11.060;2023-03-14T08:47:19;99531.38;;;13.36;73.78
76868;BME280;66168;45.478;11.060;2023-03-14T08:49:46;99524.27;;;13.37;73.80
76868;BME280;66168;45.478;11.060;2023-03-14T08:52:13;99522.51;;;13.41;73.77
76868;BME280;66168;45.478;11.060;2023-03-14T08:54:39;99521.98;;;13.43;73.67
76868;BME280;66168;45.478;11.060;2023-03-14T08:57:06;99527.86;;;13.45;73.83
76868;BME280;66168;45.478;11.060;2023-03-14T08:59:33;99524.13;;;13.47;74.42
76868;BME280;66168;45.478;11.060;2023-03-14T09:01:59;99512.04;;;13.48;74.46
76868;BME280;66168;45.478;11.060;2023-03-14T09:04:30;99515.52;;;13.48;73.98
76868;BME280;66168;45.478;11.060;2023-03-14T09:06:58;99523.38;;;13.47;73.91
76868;BME280;66168;45.478;11.060;2023-03-14T09:09:25;99528.59;;;13.46;74.64
76868;BME280;66168;45.478;11.060;2023-03-14T09:11:56;99519.41;;;13.44;74.57
76868;BME280;66168;45.478;11.060;2023-03-14T09:14:23;99524.27;;;13.44;73.94
76868;BME280;66168;45.478;11.060;2023-03-14T09:16:50;99525.68;;;13.47;73.92
76868;BME280;66168;45.478;11.060;2023-03-14T09:19:17;99516.70;;;13.48;74.37
76868;BME280;66168;45.478;11.060;2023-03-14T09:21:44;99528.05;;;13.48;74.69
76868;BME280;66168;45.478;11.060;2023-03-14T09:24:10;99538.14;;;13.42;74.32
76868;BME280;66168;45.478;11.060;2023-03-14T09:26:37;99535.27;;;13.36;73.73
76868;BME280;66168;45.478;11.060;2023-03-14T09:29:04;99531.86;;;13.32;73.30
76868;BME280;66168;45.478;11.060;2023-03-14T09:31:31;99528.17;;;13.29;74.89
76868;BME280;66168;45.478;11.060;2023-03-14T09:33:58;99530.42;;;13.29;74.88
76868;BME280;66168;45.478;11.060;2023-03-14T09:36:24;99531.77;;;13.26;75.01
76868;BME280;66168;45.478;11.060;2023-03-14T09:38:51;99543.39;;;13.26;75.28
76868;BME280;66168;45.478;11.060;2023-03-14T09:41:27;99543.39;;;13.26;75.52
76868;BME280;66168;45.478;11.060;2023-03-14T09:44:17;99542.48;;;13.26;75.46
76868;BME280;66168;45.478;11.060;2023-03-14T09:46:50;99540.29;;;13.24;75.15
76868;BME280;66168;45.478;11.060;2023-03-14T09:49:30;99535.29;;;13.23;75.26
76868;BME280;66168;45.478;11.060;2023-03-14T09:52:01;99537.88;;;13.22;74.79
76868;BME280;66168;45.478;11.060;2023-03-14T09:54:31;99543.69;;;13.20;73.48
76868;BME280;66168;45.478;11.060;2023-03-14T09:56:59;99540.25;;;13.14;74.39
76868;BME280;66168;45.478;11.060;2023-03-14T09:59:28;99545.86;;;13.16;74.54
76868;BME280;66168;45.478;11.060;2023-03-14T10:02:00;99555.01;;;13.16;74.70
76868;BME280;66168;45.478;11.060;2023-03-14T10:04:28;99554.65;;;13.16;75.08
76868;BME280;66168;45.478;11.060;2023-03-14T10:06:56;99547.95;;;13.15;75.32
76868;BME280;66168;45.478;11.060;2023-03-14T10:09:23;99539.61;;;13.12;75.05
76868;BME280;66168;45.478;11.060;2023-03-14T10:11:57;99541.34;;;13.10;76.20
76868;BME280;66168;45.478;11.060;2023-03-14T10:14:37;99543.95;;;13.07;75.73
76868;BME280;66168;45.478;11.060;2023-03-14T10:17:06;99533.20;;;13.05;76.04
76868;BME280;66168;45.478;11.060;2023-03-14T10:19:34;99535.13;;;13.06;76.00
76868;BME280;66168;45.478;11.060;2023-03-14T10:22:04;99538.52;;;13.09;76.01
76868;BME280;66168;45.478;11.060;2023-03-14T10:24:34;99545.10;;;13.01;76.97
76868;BME280;66168;45.478;11.060;2023-03-14T10:27:04;99540.75;;;12.84;78.20
76868;BME280;66168;45.478;11.060;2023-03-14T10:29:33;99532.48;;;12.76;78.85
76868;BME280;66168;45.478;11.060;2023-03-14T10:34:39;99531.63;;;12.76;76.61
76868;BME280;66168;45.478;11.060;2023-03-14T10:37:12;99531.09;;;12.81;77.24
76868;BME280;66168;45.478;11.060;2023-03-14T10:39:47;99524.40;;;12.87;77.06
76868;BME280;66168;45.478;11.060;2023-03-14T10:42:21;99515.43;;;12.90;76.50
76868;BME280;66168;45.478;11.060;2023-03-14T10:45:02;99517.56;;;12.90;75.88
76868;BME280;66168;45.478;11.060;2023-03-14T10:47:31;99523.24;;;12.92;75.73
76868;BME280;66168;45.478;11.060;2023-03-14T10:52:52;99508.47;;;12.92;76.44
76868;BME280;66168;45.478;11.060;2023-03-14T10:55:29;99485.95;;;12.94;76.48
76868;BME280;66168;45.478;11.060;2023-03-14T10:58:17;99477.17;;;12.97;76.63
76868;BME280;66168;45.478;11.060;2023-03-14T11:00:48;99476.45;;;13.02;76.84
76868;BME280;66168;45.478;11.060;2023-03-14T11:03:17;99477.87;;;13.07;77.18
76868;BME280;66168;45.478;11.060;2023-03-14T11:05:53;99484.77;;;13.10;76.51
76868;BME280;66168;45.478;11.060;2023-03-14T11:11:15;99475.25;;;13.09;76.40
76868;BME280;66168;45.478;11.060;2023-03-14T11:19:31;99459.56;;;13.17;76.97
76868;BME280;66168;45.478;11.060;2023-03-14T11:25:05;99475.34;;;13.28;76.85
76868;BME280;66168;45.478;11.060;2023-03-14T11:27:41;99481.71;;;13.25;77.19
76868;BME280;66168;45.478;11.060;2023-03-14T11:36:07;99466.23;;;13.20;77.87
76868;BME280;66168;45.478;11.060;2023-03-14T11:38:38;99464.41;;;13.13;77.64
76868;BME280;66168;45.478;11.060;2023-03-14T11:41:14;99455.27;;;13.04;78.41
76868;BME280;66168;45.478;11.060;2023-03-14T11:43:47;99442.50;;;13.04;78.07
76868;BME280;66168;45.478;11.060;2023-03-14T11:46:23;99431.73;;;13.07;77.62
76868;BME280;66168;45.478;11.060;2023-03-14T11:49:16;99426.39;;;13.07;78.28
76868;BME280;66168;45.478;11.060;2023-03-14T11:51:49;99424.75;;;13.13;76.47
76868;BME280;66168;45.478;11.060;2023-03-14T11:54:40;99433.77;;;13.16;76.99
76868;BME280;66168;45.478;11.060;2023-03-14T11:57:18;99433.92;;;13.18;78.81
76868;BME280;66168;45.478;11.060;2023-03-14T12:03:26;99429.57;;;13.23;77.86
76868;BME280;66168;45.478;11.060;2023-03-14T12:05:28;99426.86;;;13.18;79.60
76868;BME280;66168;45.478;11.060;2023-03-14T12:10:48;99419.99;;;13.06;81.87
76868;BME280;66168;45.478;11.060;2023-03-14T12:13:16;99421.04;;;13.03;81.51
76868;BME280;66168;45.478;11.060;2023-03-14T12:16:05;99425.86;;;12.98;80.22
76868;BME280;66168;45.478;11.060;2023-03-14T12:18:38;99425.65;;;12.89;80.13
76868;BME280;66168;45.478;11.060;2023-03-14T12:21:11;99411.34;;;12.89;80.15
76868;BME280;66168;45.478;11.060;2023-03-14T12:23:53;99410.05;;;12.85;79.82
76868;BME280;66168;45.478;11.060;2023-03-14T12:26:26;99409.41;;;12.91;79.88
76868;BME280;66168;45.478;11.060;2023-03-14T12:34:24;99406.05;;;13.20;78.98
76868;BME280;66168;45.478;11.060;2023-03-14T12:36:59;99395.14;;;13.27;78.53
76868;BME280;66168;45.478;11.060;2023-03-14T12:39:57;99393.15;;;13.32;78.43
76868;BME280;66168;45.478;11.060;2023-03-14T12:42:57;99391.61;;;13.34;78.06
76868;BME280;66168;45.478;11.060;2023-03-14T12:47:55;99368.90;;;13.45;77.94
76868;BME280;66168;45.478;11.060;2023-03-14T12:50:30;99358.85;;;13.54;77.78
76868;BME280;66168;45.478;11.060;2023-03-14T12:53:17;99346.70;;;13.67;77.06
76868;BME280;66168;45.478;11.060;2023-03-14T12:56:28;99337.41;;;13.82;77.17
76868;BME280;66168;45.478;11.060;2023-03-14T13:01:28;99336.15;;;14.15;76.40
76868;BME280;66168;45.478;11.060;2023-03-14T13:03:57;99341.72;;;14.26;76.18
76868;BME280;66168;45.478;11.060;2023-03-14T13:12:00;99327.45;;;14.29;77.83
76868;BME280;66168;45.478;11.060;2023-03-14T13:14:28;99326.35;;;14.44;78.01
76868;BME280;66168;45.478;11.060;2023-03-14T13:16:59;99329.96;;;14.67;78.47
76868;BME280;66168;45.478;11.060;2023-03-14T13:19:50;99323.50;;;15.05;78.33
76868;BME280;66168;45.478;11.060;2023-03-14T13:22:30;99319.73;;;15.41;77.64
76868;BME280;66168;45.478;11.060;2023-03-14T13:25:10;99326.45;;;15.73;76.51
76868;BME280;66168;45.478;11.060;2023-03-14T13:27:37;99328.02;;;15.64;74.38
76868;BME280;66168;45.478;11.060;2023-03-14T13:30:40;99331.48;;;15.52;75.15
76868;BME280;66168;45.478;11.060;2023-03-14T13:33:14;99332.25;;;15.73;74.67
76868;BME280;66168;45.478;11.060;2023-03-14T13:35:50;99328.82;;;15.98;75.15
76868;BME280;66168;45.478;11.060;2023-03-14T13:38:23;99321.36;;;16.27;73.55
76868;BME280;66168;45.478;11.060;2023-03-14T13:40:54;99319.35;;;16.53;72.73
76868;BME280;66168;45.478;11.060;2023-03-14T13:43:27;99320.45;;;16.69;71.11
76868;BME280;66168;45.478;11.060;2023-03-14T13:48:29;99310.67;;;16.00;69.40
76868;BME280;66168;45.478;11.060;2023-03-14T13:51:03;99311.67;;;15.68;70.14
76868;BME280;66168;45.478;11.060;2023-03-14T13:53:31;99305.77;;;15.48;71.18
76868;BME280;66168;45.478;11.060;2023-03-14T13:56:02;99311.94;;;15.27;71.04
76868;BME280;66168;45.478;11.060;2023-03-14T13:58:31;99316.39;;;15.18;72.59
76868;BME280;66168;45.478;11.060;2023-03-14T14:01:25;99318.52;;;15.29;73.04
76868;BME280;66168;45.478;11.060;2023-03-14T14:03:53;99312.27;;;15.36;72.69
76868;BME280;66168;45.478;11.060;2023-03-14T14:09:00;99311.32;;;15.25;70.45